Time;durP1;ratioP1;P1;durP2;ratioP2;P2;SDS_P1;SDS_P2;PMS_P1;PMS_P2;Temp;Humidity;BMP_temperature;BMP_pressure;BME280_temperature;BME280_humidity;BME280_pressure;Samples;Min_cycle;Max_cycle;Signal;HPM_P1;HPM_P2
2022/01/18 04:02:23;;;;;;;3.53;2.63;;;7.20;83.00;;;;;;5234991;23;20499;-81
2022/01/18 04:04:50;;;;;;;3.50;2.70;;;7.20;82.80;;;;;;5037124;28;20510;-82
2022/01/18 04:07:17;;;;;;;3.37;2.33;;;7.30;82.60;;;;;;5039195;28;20562;-82
2022/01/18 04:09:44;;;;;;;4.10;2.73;;;7.30;82.50;;;;;;5039354;28;20416;-82
2022/01/18 04:12:11;;;;;;;3.90;2.50;;;7.30;82.60;;;;;;5039219;28;20440;-81
2022/01/18 04:14:38;;;;;;;3.53;2.50;;;7.30;82.60;;;;;;5050790;23;20496;-76
2022/01/18 04:17:12;;;;;;;3.70;2.80;;;7.40;82.40;;;;;;5014799;28;20474;-78
2022/01/18 04:28:00;;;;;;;3.23;2.30;;;7.50;82.30;;;;;;5013894;28;20416;-78
2022/01/18 04:30:27;;;;;;;3.93;2.50;;;7.50;82.10;;;;;;5013564;28;20503;-78
2022/01/18 04:32:54;;;;;;;3.37;2.67;;;7.50;82.10;;;;;;5013781;28;20448;-78
2022/01/18 04:35:22;;;;;;;4.10;3.30;;;7.50;82.20;;;;;;5013326;28;20464;-78
2022/01/18 04:37:49;;;;;;;4.57;2.67;;;7.60;82.20;;;;;;5015986;28;20454;-78
2022/01/18 04:40:18;;;;;;;3.93;3.17;;;7.60;82.10;;;;;;5017637;28;20448;-78
2022/01/18 04:48:27;;;;;;;4.87;4.37;;;7.60;82.10;;;;;;5017473;28;20412;-78
2022/01/18 04:50:57;;;;;;;5.50;3.87;;;7.60;82.30;;;;;;5017419;28;20433;-78
2022/01/18 04:53:25;;;;;;;9.23;4.30;;;7.60;82.30;;;;;;5017477;28;20502;-78
2022/01/18 04:55:54;;;;;;;4.53;3.60;;;7.60;82.30;;;;;;5017290;28;20526;-78
2022/01/18 04:58:22;;;;;;;4.93;3.30;;;7.60;82.20;;;;;;5017233;28;20510;-78
2022/01/18 05:00:51;;;;;;;4.87;4.37;;;7.70;81.90;;;;;;5017035;28;20448;-78
2022/01/18 05:03:18;;;;;;;4.70;3.97;;;7.70;81.90;;;;;;5016777;28;20456;-78
2022/01/18 05:05:45;;;;;;;4.83;4.27;;;7.70;81.80;;;;;;5016789;28;20468;-78
2022/01/18 05:08:14;;;;;;;5.03;4.07;;;7.70;81.80;;;;;;5016828;28;20479;-78
2022/01/18 05:10:41;;;;;;;5.03;3.83;;;7.80;81.70;;;;;;5016666;28;20451;-78
2022/01/18 05:13:18;;;;;;;5.20;4.70;;;7.70;81.70;;;;;;5016906;28;20455;-78
2022/01/18 05:15:50;;;;;;;6.03;3.93;;;7.70;81.70;;;;;;5016350;28;20476;-78
2022/01/18 05:21:16;;;;;;;7.60;3.83;;;7.70;81.80;;;;;;5016636;28;20404;-78
2022/01/18 05:23:44;;;;;;;5.80;4.47;;;7.80;81.70;;;;;;5016523;28;20483;-77
2022/01/18 05:26:10;;;;;;;4.90;4.43;;;7.70;81.90;;;;;;5016391;28;20444;-78
2022/01/18 05:28:37;;;;;;;4.60;4.20;;;7.70;81.90;;;;;;5016396;28;20444;-78
2022/01/18 05:31:04;;;;;;;6.00;4.00;;;7.70;81.70;;;;;;5016271;28;20448;-78
2022/01/18 05:33:31;;;;;;;5.20;4.20;;;7.70;81.70;;;;;;5016362;28;20459;-78
2022/01/18 05:35:57;;;;;;;4.90;4.17;;;7.70;81.80;;;;;;5016215;28;20464;-78
2022/01/18 05:38:24;;;;;;;5.40;4.50;;;7.70;81.70;;;;;;5016184;28;20475;-78
2022/01/18 05:40:52;;;;;;;4.50;4.10;;;7.80;81.60;;;;;;5016155;28;20454;-78
2022/01/18 05:43:19;;;;;;;4.50;3.90;;;7.70;81.30;;;;;;5016225;28;20448;-78
2022/01/18 05:45:46;;;;;;;4.73;4.33;;;7.60;82.10;;;;;;5015745;28;20903;-78
2022/01/18 05:48:12;;;;;;;5.20;3.97;;;7.60;82.00;;;;;;5015370;28;20499;-78
2022/01/18 05:50:39;;;;;;;4.80;3.60;;;7.70;81.70;;;;;;5016026;28;20450;-78
2022/01/18 05:53:06;;;;;;;6.30;4.73;;;7.70;81.80;;;;;;5016042;28;20448;-78
2022/01/18 05:55:32;;;;;;;4.77;4.27;;;7.60;81.80;;;;;;5015972;28;20460;-78
2022/01/18 05:58:00;;;;;;;4.60;3.70;;;7.70;81.70;;;;;;5015813;28;20794;-78
2022/01/18 06:00:30;;;;;;;4.53;4.00;;;7.70;81.60;;;;;;5016659;28;20883;-78
2022/01/18 06:03:02;;;;;;;5.33;4.07;;;7.50;81.70;;;;;;5016749;28;20950;-78
2022/01/18 06:08:14;;;;;;;5.10;4.50;;;7.40;81.90;;;;;;5015930;28;20450;-78
2022/01/18 06:10:41;;;;;;;4.73;4.23;;;7.20;82.40;;;;;;5015934;28;20448;-78
2022/01/18 06:13:09;;;;;;;5.10;4.53;;;7.10;82.90;;;;;;5015854;28;20452;-78
2022/01/18 06:15:36;;;;;;;4.57;4.00;;;7.20;82.90;;;;;;5015218;28;20991;-78
2022/01/18 06:18:03;;;;;;;5.87;4.80;;;7.20;82.60;;;;;;5015609;28;20452;-78
2022/01/18 06:20:30;;;;;;;5.70;3.97;;;7.00;83.00;;;;;;5015606;28;20448;-78
2022/01/18 06:22:56;;;;;;;4.87;4.40;;;7.00;83.40;;;;;;5015588;28;20444;-78
2022/01/18 06:25:23;;;;;;;5.33;4.80;;;7.00;83.10;;;;;;5015224;28;20542;-78
2022/01/18 06:27:50;;;;;;;7.27;4.77;;;7.10;83.10;;;;;;5015374;28;20452;-78
2022/01/18 06:30:18;;;;;;;5.20;4.70;;;7.20;82.90;;;;;;5015217;28;20456;-78
2022/01/18 06:32:45;;;;;;;4.90;4.40;;;7.20;82.50;;;;;;5015149;28;20830;-78
2022/01/18 06:35:14;;;;;;;5.20;4.27;;;7.20;82.60;;;;;;5015259;28;20464;-78
2022/01/18 06:37:41;;;;;;;4.97;4.47;;;7.20;82.60;;;;;;5015407;28;20452;-78
2022/01/18 06:40:10;;;;;;;5.37;4.70;;;7.10;82.40;;;;;;5015307;28;20502;-78
2022/01/18 06:42:37;;;;;;;5.47;4.30;;;7.10;82.60;;;;;;5015145;28;20452;-78
2022/01/18 06:45:05;;;;;;;4.60;3.97;;;6.90;82.80;;;;;;5014998;28;20542;-78
2022/01/18 06:47:33;;;;;;;5.77;4.50;;;7.00;83.10;;;;;;5015277;28;20448;-78
2022/01/18 06:50:00;;;;;;;5.20;4.30;;;7.00;83.00;;;;;;5015273;28;20448;-78
2022/01/18 06:52:26;;;;;;;5.00;4.37;;;7.10;82.90;;;;;;5014911;28;20445;-78
2022/01/18 06:54:53;;;;;;;4.70;4.20;;;7.10;82.60;;;;;;5015037;28;20495;-78
2022/01/18 06:57:20;;;;;;;5.17;4.67;;;7.00;82.90;;;;;;5014786;28;20440;-78
2022/01/18 06:59:46;;;;;;;4.87;4.37;;;6.90;82.70;;;;;;5014299;28;21005;-78
2022/01/18 07:02:13;;;;;;;4.67;4.03;;;6.90;83.20;;;;;;5014075;28;21063;-78
2022/01/18 07:04:41;;;;;;;5.27;4.43;;;6.90;83.30;;;;;;5014670;28;20488;-78
2022/01/18 07:07:08;;;;;;;5.60;4.67;;;7.00;83.20;;;;;;5014724;28;20452;-78
2022/01/18 07:09:35;;;;;;;4.93;4.00;;;7.00;83.00;;;;;;5014457;28;20998;-78
2022/01/18 07:12:08;;;;;;;5.83;5.23;;;7.00;82.90;;;;;;5014809;28;20452;-78
2022/01/18 07:14:34;;;;;;;5.07;4.57;;;7.00;82.50;;;;;;5014256;28;20530;-78
2022/01/18 07:17:01;;;;;;;4.97;4.47;;;6.90;82.90;;;;;;5014488;28;20452;-78
2022/01/18 07:19:31;;;;;;;5.70;5.10;;;6.90;82.80;;;;;;5014633;28;20482;-78
2022/01/18 07:22:07;;;;;;;6.03;5.23;;;6.90;83.00;;;;;;5092058;28;20527;-79
2022/01/18 07:24:39;;;;;;;5.50;4.50;;;6.80;82.90;;;;;;5090986;28;20476;-78
2022/01/18 07:27:08;;;;;;;6.03;4.47;;;6.80;83.50;;;;;;5091938;28;20516;-78
2022/01/18 07:29:35;;;;;;;5.27;4.70;;;6.80;83.00;;;;;;5092152;28;20528;-78
2022/01/18 07:32:01;;;;;;;5.07;4.50;;;6.60;83.10;;;;;;5092575;28;20514;-79
2022/01/18 07:34:30;;;;;;;5.50;4.73;;;6.50;84.20;;;;;;5092225;28;20464;-78
2022/01/18 07:36:57;;;;;;;5.60;4.63;;;6.60;83.80;;;;;;5093197;28;20540;-78
2022/01/18 07:39:25;;;;;;;5.30;4.80;;;6.60;83.20;;;;;;5091983;28;20441;-78
2022/01/18 07:41:52;;;;;;;5.07;4.57;;;6.70;83.10;;;;;;5090522;28;20477;-78
2022/01/18 07:44:18;;;;;;;6.10;4.83;;;6.70;83.00;;;;;;5090793;28;20476;-78
2022/01/18 07:46:45;;;;;;;5.47;4.97;;;6.90;83.90;;;;;;5090675;28;20453;-78
2022/01/18 07:49:12;;;;;;;5.00;4.30;;;7.10;82.20;;;;;;5090575;28;20433;-78
2022/01/18 07:51:38;;;;;;;4.20;3.60;;;7.30;81.80;;;;;;5091013;28;20444;-77
2022/01/18 07:54:05;;;;;;;5.00;4.50;;;7.30;80.80;;;;;;5090826;28;20521;-77
2022/01/18 07:56:33;;;;;;;4.90;4.00;;;7.40;80.30;;;;;;5090418;28;20834;-78
2022/01/18 07:59:00;;;;;;;5.07;3.60;;;7.50;79.90;;;;;;5091075;28;20498;-78
2022/01/18 08:01:27;;;;;;;4.70;4.17;;;7.60;79.70;;;;;;5092024;28;20521;-78
2022/01/18 08:03:53;;;;;;;4.33;3.93;;;7.60;79.60;;;;;;5092462;28;20498;-77
2022/01/18 08:06:20;;;;;;;5.07;4.57;;;7.60;79.90;;;;;;5092371;28;20445;-78
2022/01/18 08:08:47;;;;;;;4.60;3.77;;;7.70;79.70;;;;;;5091842;28;20453;-78
2022/01/18 08:11:13;;;;;;;4.37;3.80;;;7.90;79.50;;;;;;5092128;28;20469;-78
2022/01/18 08:13:44;;;;;;;4.90;4.30;;;8.00;79.10;;;;;;5091851;28;20449;-78
2022/01/18 08:16:34;;;;;;;4.80;3.90;;;8.20;78.40;;;;;;5101960;28;20472;-79
2022/01/18 08:19:02;;;;;;;4.80;4.07;;;8.40;78.00;;;;;;5098936;28;20498;-79
2022/01/18 08:21:28;;;;;;;4.37;3.97;;;8.80;77.90;;;;;;5096974;28;20480;-79
2022/01/18 08:23:55;;;;;;;4.90;4.40;;;9.10;76.50;;;;;;5096982;28;20437;-78
2022/01/18 08:26:22;;;;;;;4.27;3.87;;;9.10;75.00;;;;;;5096518;28;20480;-79
2022/01/18 08:28:50;;;;;;;5.03;4.53;;;8.80;76.50;;;;;;5096469;28;20449;-79
2022/01/18 08:31:16;;;;;;;5.40;4.53;;;9.20;76.70;;;;;;5096382;28;20673;-79
2022/01/18 08:33:43;;;;;;;4.60;4.00;;;9.60;75.60;;;;;;5083622;28;20445;-78
2022/01/18 08:36:10;;;;;;;4.23;3.70;;;9.90;74.00;;;;;;5083060;28;20559;-78
2022/01/18 08:38:39;;;;;;;4.43;4.03;;;10.00;73.40;;;;;;5082383;28;20506;-78
2022/01/18 08:41:07;;;;;;;4.20;3.40;;;10.20;72.90;;;;;;5081950;28;20481;-78
2022/01/18 08:43:36;;;;;;;3.90;3.20;;;10.30;72.30;;;;;;5083245;28;20445;-78
2022/01/18 08:46:05;;;;;;;4.60;4.10;;;10.10;71.90;;;;;;5082135;28;20877;-78
2022/01/18 08:48:31;;;;;;;4.63;4.20;;;10.10;72.50;;;;;;5081890;28;20502;-79
2022/01/18 08:50:59;;;;;;;3.97;3.57;;;10.10;72.80;;;;;;5082715;28;20874;-79
2022/01/18 08:53:26;;;;;;;4.90;4.03;;;9.90;72.90;;;;;;5083665;28;20446;-78
2022/01/18 08:55:54;;;;;;;4.27;3.33;;;9.70;74.30;;;;;;5082818;28;20623;-79
2022/01/18 08:58:22;;;;;;;3.53;2.77;;;10.00;74.10;;;;;;5078548;28;20445;-79
2022/01/18 09:00:49;;;;;;;3.87;3.40;;;10.20;71.70;;;;;;5078703;28;20477;-78
2022/01/18 09:03:17;;;;;;;4.40;3.27;;;10.40;71.50;;;;;;5078412;28;20472;-79
2022/01/18 09:05:45;;;;;;;3.93;2.93;;;10.40;71.20;;;;;;5076394;28;20461;-77
2022/01/18 09:08:12;;;;;;;3.90;3.40;;;10.40;71.30;;;;;;5075512;28;20887;-77
2022/01/18 09:10:40;;;;;;;4.27;3.03;;;10.30;70.90;;;;;;5076393;28;20503;-79
2022/01/18 09:13:07;;;;;;;3.90;3.07;;;10.30;71.20;;;;;;5082346;28;20449;-79
2022/01/18 09:15:34;;;;;;;3.70;3.27;;;10.30;71.40;;;;;;5080608;28;20469;-79
2022/01/18 09:18:00;;;;;;;4.20;3.40;;;10.10;71.80;;;;;;5077776;28;20445;-74
2022/01/18 09:20:30;;;;;;;4.83;3.97;;;9.80;72.70;;;;;;5076785;28;21018;-72
2022/01/18 09:22:57;;;;;;;4.77;3.50;;;9.70;72.90;;;;;;5075931;28;20479;-77
2022/01/18 09:25:27;;;;;;;4.50;3.30;;;9.50;73.70;;;;;;5075751;28;20523;-78
2022/01/18 09:27:54;;;;;;;3.70;2.90;;;9.10;74.60;;;;;;5076159;28;20457;-78
2022/01/18 09:30:21;;;;;;;4.33;2.80;;;9.10;74.60;;;;;;5075444;28;20445;-77
2022/01/18 09:32:49;;;;;;;4.00;2.83;;;8.90;74.10;;;;;;5075993;28;20453;-78
2022/01/18 09:35:16;;;;;;;3.73;3.03;;;8.70;74.20;;;;;;5075339;28;20474;-78
2022/01/18 09:37:45;;;;;;;4.20;3.33;;;8.60;75.40;;;;;;5075032;28;20860;-78
2022/01/18 09:40:14;;;;;;;3.80;2.80;;;8.10;76.70;;;;;;5074983;28;20449;-78
2022/01/18 09:42:43;;;;;;;5.87;3.33;;;7.90;77.60;;;;;;5075263;28;20568;-78
2022/01/18 09:45:12;;;;;;;4.27;3.60;;;8.00;77.60;;;;;;5074289;28;20858;-78
2022/01/18 09:47:42;;;;;;;4.23;3.23;;;8.00;77.70;;;;;;5077788;28;20446;-78
2022/01/18 09:50:11;;;;;;;4.00;3.43;;;8.20;77.30;;;;;;5078059;28;20453;-78
2022/01/18 09:52:38;;;;;;;4.60;3.60;;;8.40;76.90;;;;;;5075608;28;20459;-78
2022/01/18 09:55:09;;;;;;;4.43;3.53;;;8.40;76.30;;;;;;5074917;28;20512;-80
2022/01/18 09:57:36;;;;;;;4.20;3.20;;;8.30;76.60;;;;;;5074689;28;20441;-78
2022/01/18 10:00:04;;;;;;;3.70;3.07;;;8.30;76.90;;;;;;5074815;28;20445;-78
2022/01/18 10:02:31;;;;;;;4.00;3.07;;;8.20;76.60;;;;;;5074703;28;20481;-78
2022/01/18 10:04:59;;;;;;;3.50;2.60;;;7.60;77.60;;;;;;5074109;28;20972;-78
2022/01/18 10:07:34;;;;;;;3.40;2.33;;;7.40;78.50;;;;;;5074455;28;20450;-78
2022/01/18 10:10:05;;;;;;;4.40;3.57;;;7.00;78.80;;;;;;5074158;28;20528;-78
2022/01/18 10:12:33;;;;;;;4.17;3.77;;;6.90;79.60;;;;;;5083550;28;20543;-78
2022/01/18 10:15:03;;;;;;;5.10;4.27;;;6.80;80.20;;;;;;5105757;22;20921;-80
2022/01/18 10:17:31;;;;;;;4.53;4.13;;;6.60;81.50;;;;;;5063695;28;20820;-78
2022/01/18 10:20:04;;;;;;;5.00;4.43;;;6.60;82.80;;;;;;5064152;28;20529;-80
2022/01/18 10:22:40;;;;;;;5.00;4.47;;;6.60;82.50;;;;;;5064381;28;20466;-79
2022/01/18 10:25:14;;;;;;;5.43;4.80;;;6.30;82.80;;;;;;5062559;28;20505;-80
2022/01/18 10:27:42;;;;;;;4.97;4.23;;;6.10;84.40;;;;;;5062818;28;20445;-79
2022/01/18 10:30:16;;;;;;;5.30;4.80;;;6.00;84.40;;;;;;5062551;28;20453;-79
2022/01/18 10:32:43;;;;;;;4.60;3.90;;;6.00;84.50;;;;;;5063070;28;20434;-79
2022/01/18 10:35:11;;;;;;;4.80;4.30;;;5.80;83.70;;;;;;5063109;28;20553;-79
2022/01/18 10:37:41;;;;;;;4.27;3.37;;;6.00;84.10;;;;;;5061203;28;20448;-79
2022/01/18 10:40:13;;;;;;;4.23;3.33;;;6.40;82.50;;;;;;5060000;28;20454;-79
2022/01/18 10:42:46;;;;;;;4.50;3.70;;;6.40;81.60;;;;;;5059312;28;20473;-80
2022/01/18 10:45:14;;;;;;;4.30;2.90;;;6.50;81.50;;;;;;5060399;28;20466;-80
2022/01/18 10:47:49;;;;;;;4.67;3.30;;;6.70;81.40;;;;;;5064363;28;20968;-79
2022/01/18 10:50:18;;;;;;;4.23;2.60;;;6.70;80.80;;;;;;5061645;28;20461;-79
2022/01/18 10:52:45;;;;;;;3.83;2.90;;;6.90;81.50;;;;;;5060756;28;20472;-80
2022/01/18 10:55:16;;;;;;;3.83;3.00;;;7.10;80.30;;;;;;5060147;28;20462;-80
2022/01/18 10:57:45;;;;;;;4.80;3.93;;;7.20;80.30;;;;;;5056950;28;20450;-79
2022/01/18 11:00:16;;;;;;;4.77;3.10;;;7.40;80.30;;;;;;5056554;28;20869;-79
2022/01/18 11:02:44;;;;;;;4.20;3.27;;;7.80;79.50;;;;;;5057156;28;20466;-79
2022/01/18 11:05:17;;;;;;;3.87;2.63;;;8.20;77.80;;;;;;5057265;28;20837;-79
2022/01/18 11:07:45;;;;;;;3.83;2.47;;;8.60;75.40;;;;;;5059395;28;20443;-79
2022/01/18 11:10:13;;;;;;;3.33;2.60;;;8.80;74.40;;;;;;5059352;28;20454;-78
2022/01/18 11:12:53;;;;;;;3.80;2.20;;;8.90;75.20;;;;;;5059122;28;20450;-79
2022/01/18 11:15:22;;;;;;;3.90;2.60;;;9.20;72.80;;;;;;5060391;28;20482;-79
2022/01/18 11:17:56;;;;;;;3.13;1.87;;;9.50;73.20;;;;;;5058910;28;20446;-80
2022/01/18 11:20:23;;;;;;;3.53;2.60;;;9.80;71.30;;;;;;5059679;28;20438;-79
2022/01/18 11:22:55;;;;;;;6.10;3.10;;;9.90;70.70;;;;;;5059399;28;21058;-80
2022/01/18 11:25:22;;;;;;;3.83;2.27;;;9.90;69.50;;;;;;5058489;28;20493;-80
2022/01/18 11:27:53;;;;;;;3.33;2.30;;;9.70;70.00;;;;;;5059580;28;20442;-80
2022/01/18 11:30:21;;;;;;;3.80;3.10;;;9.80;71.00;;;;;;5058315;28;21007;-80
2022/01/18 11:32:51;;;;;;;5.73;3.73;;;9.20;72.70;;;;;;5057938;28;20438;-79
2022/01/18 11:35:25;;;;;;;4.50;3.63;;;8.80;74.10;;;;;;5054766;28;21041;-78
2022/01/18 11:38:02;;;;;;;3.80;3.07;;;8.40;75.50;;;;;;5056657;28;20430;-80
2022/01/18 11:40:43;;;;;;;3.67;2.10;;;8.10;74.70;;;;;;5056083;28;20431;-79
2022/01/18 11:43:12;;;;;;;3.37;2.20;;;7.80;74.80;;;;;;5057087;28;20558;-78
2022/01/18 11:45:41;;;;;;;3.70;2.07;;;7.70;74.90;;;;;;5057116;28;20886;-79
2022/01/18 11:48:12;;;;;;;3.40;1.97;;;7.70;75.10;;;;;;5062520;28;20446;-79
2022/01/18 11:50:42;;;;;;;3.30;2.27;;;7.70;74.80;;;;;;5071203;28;20434;-78
2022/01/18 11:53:25;;;;;;;3.10;1.90;;;7.30;75.30;;;;;;5068244;28;20537;-78
2022/01/18 11:55:54;;;;;;;3.20;2.00;;;7.20;75.70;;;;;;5073632;28;20477;-79
2022/01/18 11:58:22;;;;;;;3.73;2.00;;;7.30;75.90;;;;;;5071261;28;20500;-78
2022/01/18 12:00:52;;;;;;;4.10;1.80;;;7.30;75.70;;;;;;5065670;28;20450;-78
2022/01/18 12:03:22;;;;;;;4.47;2.63;;;7.10;76.20;;;;;;5065736;28;20481;-79
2022/01/18 12:05:50;;;;;;;3.60;2.30;;;7.00;77.30;;;;;;5067285;28;20467;-78
2022/01/18 12:08:39;;;;;;;3.37;2.30;;;7.20;76.90;;;;;;5071335;28;20449;-79
2022/01/18 12:11:09;;;;;;;4.40;2.43;;;7.30;75.90;;;;;;5071985;28;20447;-79
2022/01/18 12:13:43;;;;;;;2.90;1.93;;;7.20;75.10;;;;;;5071678;28;20529;-79
2022/01/18 12:16:25;;;;;;;4.37;2.47;;;7.20;76.10;;;;;;5070858;28;20818;-78
2022/01/18 12:18:58;;;;;;;3.70;2.47;;;6.90;77.20;;;;;;5070101;28;20501;-79
2022/01/18 12:21:27;;;;;;;4.00;2.53;;;6.90;77.70;;;;;;5069806;28;20531;-79
2022/01/18 12:23:54;;;;;;;3.73;2.23;;;6.80;77.30;;;;;;5071901;28;20452;-79
2022/01/18 12:26:37;;;;;;;4.23;2.30;;;6.80;77.60;;;;;;5070222;28;20471;-78
2022/01/18 12:29:49;;;;;;;3.17;2.03;;;6.70;78.00;;;;;;5071105;28;20446;-80
2022/01/18 12:32:41;;;;;;;3.10;2.10;;;6.70;78.30;;;;;;5070042;28;20810;-80
2022/01/18 12:35:22;;;;;;;3.40;2.17;;;6.80;78.50;;;;;;5071384;28;20466;-79
2022/01/18 12:37:50;;;;;;;4.23;2.33;;;6.60;78.70;;;;;;5069630;28;20450;-79
2022/01/18 12:40:44;;;;;;;3.77;2.47;;;6.50;78.70;;;;;;5068855;28;20454;-79
2022/01/18 12:45:59;;;;;;;3.53;2.10;;;6.70;78.90;;;;;;5070301;28;20453;-80
2022/01/18 12:48:27;;;;;;;3.10;1.90;;;6.80;78.30;;;;;;5069320;28;20518;-79
2022/01/18 12:50:58;;;;;;;4.47;2.50;;;6.90;77.70;;;;;;5069582;28;20450;-79
2022/01/18 12:53:31;;;;;;;3.37;2.13;;;7.00;77.50;;;;;;5068688;28;20431;-79
2022/01/18 12:55:59;;;;;;;3.20;2.13;;;7.10;77.60;;;;;;5068359;28;20458;-78
2022/01/18 12:58:30;;;;;;;4.97;2.57;;;7.20;76.80;;;;;;5068132;28;20450;-78
2022/01/18 13:00:59;;;;;;;3.53;1.90;;;7.40;76.80;;;;;;5068057;28;20478;-78
2022/01/18 13:03:28;;;;;;;3.17;2.10;;;7.40;76.00;;;;;;5067080;28;20493;-79
2022/01/18 13:05:57;;;;;;;3.20;2.20;;;7.80;77.10;;;;;;5067788;28;20478;-79
2022/01/18 13:08:29;;;;;;;3.53;2.00;;;8.90;72.10;;;;;;5069828;28;20453;-80
2022/01/18 13:10:56;;;;;;;3.83;1.73;;;9.20;70.00;;;;;;5070219;28;20526;-80
2022/01/18 13:13:30;;;;;;;3.30;1.87;;;10.20;68.70;;;;;;5070311;28;20453;-80
2022/01/18 13:27:05;;;;;;;2.70;1.50;;;20.20;45.30;;;;;;5069953;28;20438;-79
2022/01/18 13:29:32;;;;;;;3.07;2.10;;;19.40;44.80;;;;;;5070034;28;20439;-79
2022/01/18 13:32:08;;;;;;;3.40;1.77;;;16.60;48.50;;;;;;5070460;28;20427;-80
2022/01/18 13:34:37;;;;;;;2.93;1.83;;;14.70;53.40;;;;;;5069842;28;20461;-78
2022/01/18 13:37:07;;;;;;;2.63;1.23;;;13.70;56.10;;;;;;5067433;28;20442;-79
2022/01/18 13:39:39;;;;;;;3.50;1.87;;;12.80;58.30;;;;;;5067072;28;20450;-78
2022/01/18 13:42:06;;;;;;;3.27;1.80;;;11.60;61.10;;;;;;5060327;28;20462;-79
2022/01/18 13:44:33;;;;;;;2.97;1.50;;;10.70;64.00;;;;;;5062412;28;20466;-78
2022/01/18 13:47:15;;;;;;;2.80;1.57;;;10.20;65.40;;;;;;5057353;28;20500;-78
2022/01/18 13:49:42;;;;;;;3.00;1.53;;;9.50;68.10;;;;;;5060012;28;20461;-79
2022/01/18 13:52:10;;;;;;;3.20;1.70;;;9.30;68.90;;;;;;5059859;28;20865;-79
2022/01/18 13:54:45;;;;;;;2.70;1.30;;;9.20;69.50;;;;;;5061661;28;20474;-79
2022/01/18 13:57:11;;;;;;;2.40;1.10;;;8.80;70.40;;;;;;5062897;28;20449;-79
2022/01/18 13:59:38;;;;;;;2.50;1.10;;;8.30;71.20;;;;;;5061925;28;20455;-79
2022/01/18 14:02:18;;;;;;;3.37;1.40;;;8.00;71.70;;;;;;5061808;28;20540;-79
2022/01/18 14:04:45;;;;;;;2.80;1.30;;;7.70;72.60;;;;;;5060851;28;20492;-79
2022/01/18 14:07:12;;;;;;;2.80;1.17;;;7.70;73.40;;;;;;5063492;28;20445;-78
2022/01/18 14:09:39;;;;;;;2.60;1.10;;;7.40;74.00;;;;;;5060059;28;20465;-78
2022/01/18 14:12:13;;;;;;;2.60;1.30;;;7.40;74.30;;;;;;5060693;28;20508;-79
2022/01/18 14:14:42;;;;;;;2.60;1.10;;;7.40;74.40;;;;;;5058706;28;20477;-78
2022/01/18 14:17:14;;;;;;;2.60;1.30;;;7.60;74.00;;;;;;5055737;28;20439;-78
2022/01/18 14:19:44;;;;;;;3.00;1.23;;;7.70;73.50;;;;;;5056282;28;20526;-79
2022/01/18 14:22:16;;;;;;;2.80;1.40;;;7.70;73.10;;;;;;5064418;28;20485;-79
2022/01/18 14:24:44;;;;;;;2.50;1.10;;;7.80;73.00;;;;;;5063901;28;20558;-78
2022/01/18 14:27:13;;;;;;;3.70;1.40;;;8.00;72.50;;;;;;5061369;28;20442;-78
2022/01/18 14:29:51;;;;;;;2.60;1.20;;;8.30;72.20;;;;;;5058884;28;20442;-78
2022/01/18 14:32:25;;;;;;;3.23;1.37;;;8.70;71.50;;;;;;5062014;28;20500;-79
2022/01/18 14:34:56;;;;;;;2.63;1.13;;;9.40;69.10;;;;;;5061705;28;20466;-78
2022/01/18 14:37:39;;;;;;;2.80;1.50;;;9.70;68.20;;;;;;5060547;28;20477;-79
2022/01/18 14:40:12;;;;;;;2.70;1.20;;;9.90;67.30;;;;;;5059342;28;20435;-78
2022/01/18 14:42:46;;;;;;;2.40;1.00;;;10.10;66.80;;;;;;5055631;28;20471;-78
2022/01/18 14:48:04;;;;;;;3.00;1.60;;;9.80;66.90;;;;;;5049338;28;20438;-78
2022/01/18 14:50:33;;;;;;;2.83;1.10;;;9.60;67.50;;;;;;5060991;28;20453;-79
2022/01/18 14:52:59;;;;;;;4.20;1.20;;;9.50;67.40;;;;;;5067524;28;20472;-79
2022/01/18 14:55:28;;;;;;;2.80;1.30;;;9.40;67.80;;;;;;5066130;28;20462;-79
2022/01/18 14:57:57;;;;;;;2.50;1.10;;;9.40;67.60;;;;;;5065355;28;20442;-78
2022/01/18 15:00:25;;;;;;;2.50;1.00;;;9.50;67.40;;;;;;5065477;28;20934;-79
2022/01/18 15:02:54;;;;;;;3.03;1.20;;;9.40;67.30;;;;;;5069761;28;20474;-79
2022/01/18 15:05:21;;;;;;;2.63;0.90;;;9.20;67.30;;;;;;5072712;28;20459;-79
2022/01/18 15:07:49;;;;;;;2.90;1.30;;;8.90;67.80;;;;;;5070695;28;20465;-79
2022/01/18 15:10:17;;;;;;;2.60;1.03;;;8.60;68.80;;;;;;5069415;28;20450;-79
2022/01/18 15:12:46;;;;;;;2.70;1.30;;;8.60;69.10;;;;;;5069247;28;20438;-79
2022/01/18 15:15:14;;;;;;;2.80;1.20;;;8.30;70.40;;;;;;5067607;28;20853;-79
2022/01/18 15:17:41;;;;;;;2.90;1.00;;;8.10;70.80;;;;;;5066819;28;20497;-79
2022/01/18 15:20:09;;;;;;;2.47;1.13;;;8.10;71.50;;;;;;5067056;28;20442;-79
2022/01/18 15:22:36;;;;;;;2.80;1.47;;;8.00;71.80;;;;;;5059722;28;20897;-79
2022/01/18 15:25:04;;;;;;;2.90;1.43;;;8.00;71.80;;;;;;5058443;28;20466;-79
2022/01/18 15:27:31;;;;;;;2.80;1.40;;;7.60;72.20;;;;;;5058105;28;20450;-77
2022/01/18 15:29:58;;;;;;;3.23;1.43;;;7.40;73.30;;;;;;5060873;28;20462;-79
2022/01/18 15:32:26;;;;;;;2.80;1.27;;;7.30;73.40;;;;;;5061279;28;20516;-80
2022/01/18 15:34:53;;;;;;;3.50;1.40;;;7.00;74.20;;;;;;5062894;28;20554;-80
2022/01/18 15:37:20;;;;;;;2.80;1.10;;;7.00;74.60;;;;;;5058430;28;20453;-78
2022/01/18 15:39:49;;;;;;;3.10;1.27;;;6.90;74.90;;;;;;5056222;28;20450;-79
2022/01/18 15:42:17;;;;;;;3.07;1.37;;;6.70;75.10;;;;;;5058506;28;20442;-79
2022/01/18 15:44:44;;;;;;;2.60;1.10;;;6.60;75.80;;;;;;5059678;28;20865;-79
2022/01/18 15:47:13;;;;;;;3.20;1.60;;;6.50;76.00;;;;;;5059723;28;20450;-78
2022/01/18 15:49:40;;;;;;;2.60;1.30;;;6.40;76.00;;;;;;5060963;28;20450;-78
2022/01/18 15:52:07;;;;;;;2.60;1.27;;;6.40;76.20;;;;;;5061984;28;20454;-78
2022/01/18 15:54:34;;;;;;;2.77;1.10;;;6.40;75.50;;;;;;5061000;28;20462;-79
2022/01/18 15:57:02;;;;;;;2.67;1.10;;;6.60;75.00;;;;;;5060038;28;20499;-78
2022/01/18 15:59:30;;;;;;;2.73;1.40;;;6.50;75.10;;;;;;5061728;28;20446;-78
2022/01/18 16:01:57;;;;;;;2.60;1.33;;;6.40;75.90;;;;;;5060055;28;20496;-77
2022/01/18 16:04:24;;;;;;;2.80;1.47;;;6.20;76.40;;;;;;5057219;28;20482;-78
2022/01/18 16:06:50;;;;;;;2.60;1.27;;;6.20;76.90;;;;;;5060524;28;20517;-79
2022/01/18 16:09:17;;;;;;;2.70;1.40;;;6.10;76.70;;;;;;5060323;28;20480;-79
2022/01/18 16:11:43;;;;;;;2.47;1.10;;;6.30;76.40;;;;;;5064206;28;20465;-78
2022/01/18 16:14:10;;;;;;;3.00;1.63;;;6.30;76.40;;;;;;5070213;28;20457;-79
2022/01/18 16:16:39;;;;;;;4.53;2.10;;;6.30;76.00;;;;;;5100619;22;20497;-77
2022/01/18 16:19:07;;;;;;;3.60;2.17;;;6.40;75.60;;;;;;5076701;28;20542;-78
2022/01/18 16:21:35;;;;;;;2.97;1.50;;;6.40;75.50;;;;;;5076220;28;20945;-77
2022/01/18 16:24:02;;;;;;;2.70;1.60;;;6.40;75.40;;;;;;5076307;28;20481;-77
2022/01/18 16:26:29;;;;;;;2.80;1.30;;;6.40;75.50;;;;;;5075987;28;20466;-77
2022/01/18 16:28:56;;;;;;;3.00;1.10;;;6.30;75.70;;;;;;5076001;28;20495;-77
2022/01/18 16:31:23;;;;;;;2.77;1.10;;;6.30;76.10;;;;;;5076014;28;20475;-77
2022/01/18 16:33:51;;;;;;;2.73;1.20;;;6.40;75.60;;;;;;5075681;28;20998;-77
2022/01/18 16:36:19;;;;;;;3.00;1.50;;;6.40;75.10;;;;;;5075450;28;20527;-77
2022/01/18 16:38:45;;;;;;;2.80;1.20;;;6.50;75.20;;;;;;5075799;28;20465;-77
2022/01/18 16:41:12;;;;;;;2.97;1.60;;;6.40;74.60;;;;;;5075757;28;20499;-77
2022/01/18 16:43:39;;;;;;;2.60;1.30;;;6.30;75.20;;;;;;5075678;28;20481;-77
2022/01/18 16:46:06;;;;;;;2.80;1.30;;;6.50;75.00;;;;;;5075587;28;20523;-77
2022/01/18 16:48:32;;;;;;;2.50;1.10;;;6.50;74.70;;;;;;5075700;28;20450;-77
2022/01/18 16:51:01;;;;;;;3.00;1.50;;;6.50;74.50;;;;;;5075326;28;20940;-77
2022/01/18 16:53:27;;;;;;;3.13;1.43;;;6.50;74.90;;;;;;5075119;28;20446;-77
2022/01/18 16:55:54;;;;;;;3.30;1.50;;;6.40;74.80;;;;;;5075560;28;20469;-78
2022/01/18 16:58:22;;;;;;;2.90;1.20;;;6.40;75.20;;;;;;5077838;28;20449;-78
2022/01/18 17:00:48;;;;;;;3.03;1.10;;;6.40;75.10;;;;;;5079969;28;20441;-78
2022/01/18 17:03:15;;;;;;;3.20;1.30;;;6.30;75.30;;;;;;5077955;28;20842;-79
2022/01/18 17:05:43;;;;;;;2.50;1.10;;;6.10;76.10;;;;;;5078601;28;20465;-80
2022/01/18 17:08:12;;;;;;;2.83;1.40;;;6.00;76.20;;;;;;5078082;28;20461;-79
2022/01/18 17:10:40;;;;;;;2.30;0.90;;;5.90;76.80;;;;;;5077893;28;20536;-79
2022/01/18 17:13:07;;;;;;;2.43;1.10;;;5.80;77.10;;;;;;5078025;28;20448;-79
2022/01/18 17:15:33;;;;;;;3.33;1.23;;;5.70;77.80;;;;;;5077087;28;21018;-79
2022/01/18 17:18:00;;;;;;;2.63;1.20;;;5.90;77.50;;;;;;5078526;28;20441;-80
2022/01/18 17:20:28;;;;;;;2.60;1.10;;;5.90;77.30;;;;;;5077758;28;20866;-79
2022/01/18 17:22:55;;;;;;;2.50;1.10;;;5.90;77.50;;;;;;5077854;28;21008;-80
2022/01/18 17:25:23;;;;;;;3.77;1.43;;;5.70;77.60;;;;;;5077644;28;20985;-80
2022/01/18 17:27:50;;;;;;;2.70;1.37;;;5.60;78.10;;;;;;5077178;28;20450;-79
2022/01/18 17:30:17;;;;;;;2.50;1.10;;;5.70;78.00;;;;;;5078990;28;20510;-80
2022/01/18 17:32:44;;;;;;;2.63;1.20;;;5.70;78.20;;;;;;5078465;28;20517;-79
2022/01/18 17:35:11;;;;;;;3.17;1.70;;;5.70;78.20;;;;;;5083217;28;20465;-80
2022/01/18 17:37:37;;;;;;;2.93;1.57;;;5.80;78.10;;;;;;5078999;28;20445;-79
2022/01/18 17:40:06;;;;;;;2.80;1.33;;;5.70;78.20;;;;;;5077270;28;20445;-79
2022/01/18 17:42:34;;;;;;;3.27;1.30;;;5.70;78.10;;;;;;5077331;28;20442;-79